sensor_id;sensor_type;location;lat;lon;timestamp;pressure;altitude;pressure_sealevel;temperature;humidity
76054;BME280;64752;48.870;9.082;2022-12-16T00:01:35;96936.88;;;-2.77;91.96
76054;BME280;64752;48.870;9.082;2022-12-16T00:04:01;96948.69;;;-2.83;92.57
76054;BME280;64752;48.870;9.082;2022-12-16T00:06:29;96947.84;;;-2.92;92.48
76054;BME280;64752;48.870;9.082;2022-12-16T00:08:55;96952.09;;;-2.83;91.93
76054;BME280;64752;48.870;9.082;2022-12-16T00:11:21;96951.25;;;-2.82;92.65
76054;BME280;64752;48.870;9.082;2022-12-16T00:13:46;96950.41;;;-2.88;91.50
76054;BME280;64752;48.870;9.082;2022-12-16T00:16:14;96963.09;;;-2.81;91.72
76054;BME280;64752;48.870;9.082;2022-12-16T00:18:40;96955.47;;;-2.68;91.87
76054;BME280;64752;48.870;9.082;2022-12-16T00:21:06;96960.56;;;-2.70;91.37
76054;BME280;64752;48.870;9.082;2022-12-16T00:23:32;96955.47;;;-2.81;91.97
76054;BME280;64752;48.870;9.082;2022-12-16T00:25:59;96937.72;;;-2.70;91.59
76054;BME280;64752;48.870;9.082;2022-12-16T00:28:24;96940.25;;;-2.88;92.32
76054;BME280;64752;48.870;9.082;2022-12-16T00:30:52;96946.16;;;-2.83;92.74
76054;BME280;64752;48.870;9.082;2022-12-16T00:33:19;96947.00;;;-2.89;92.63
76054;BME280;64752;48.870;9.082;2022-12-16T00:35:45;96943.63;;;-2.91;92.33
76054;BME280;64752;48.870;9.082;2022-12-16T00:38:11;96943.63;;;-2.82;92.74
76054;BME280;64752;48.870;9.082;2022-12-16T00:40:36;96958.84;;;-2.86;92.20
76054;BME280;64752;48.870;9.082;2022-12-16T00:43:04;96956.31;;;-2.82;92.66
76054;BME280;64752;48.870;9.082;2022-12-16T00:45:30;96952.94;;;-2.81;92.98
76054;BME280;64752;48.870;9.082;2022-12-16T00:47:56;96951.25;;;-2.63;91.35
76054;BME280;64752;48.870;9.082;2022-12-16T00:50:21;96957.16;;;-2.77;92.18
76054;BME280;64752;48.870;9.082;2022-12-16T00:52:47;96960.56;;;-2.72;92.48
76054;BME280;64752;48.870;9.082;2022-12-16T00:55:13;96969.00;;;-2.71;92.92
76054;BME280;64752;48.870;9.082;2022-12-16T00:57:39;96973.25;;;-2.70;92.18
76054;BME280;64752;48.870;9.082;2022-12-16T01:00:05;96981.69;;;-2.68;92.48
76054;BME280;64752;48.870;9.082;2022-12-16T01:02:31;96985.91;;;-2.56;92.24
76054;BME280;64752;48.870;9.082;2022-12-16T01:04:57;96981.69;;;-2.69;92.49
76054;BME280;64752;48.870;9.082;2022-12-16T01:07:22;96990.16;;;-2.63;92.32
76054;BME280;64752;48.870;9.082;2022-12-16T01:09:47;96993.53;;;-2.62;91.88
76054;BME280;64752;48.870;9.082;2022-12-16T01:12:13;96990.13;;;-2.72;92.45
76054;BME280;64752;48.870;9.082;2022-12-16T01:14:38;96990.97;;;-2.59;93.06
76054;BME280;64752;48.870;9.082;2022-12-16T01:17:03;96981.69;;;-2.71;92.48
76054;BME280;64752;48.870;9.082;2022-12-16T01:19:29;96985.94;;;-2.72;92.58
76054;BME280;64752;48.870;9.082;2022-12-16T01:21:54;96990.13;;;-2.80;92.78
76054;BME280;64752;48.870;9.082;2022-12-16T01:24:19;96996.88;;;-2.85;93.08
76054;BME280;64752;48.870;9.082;2022-12-16T01:26:45;96999.44;;;-2.77;93.10
76054;BME280;64752;48.870;9.082;2022-12-16T01:29:10;96994.38;;;-2.66;93.50
76054;BME280;64752;48.870;9.082;2022-12-16T01:31:35;96993.53;;;-2.73;93.35
76054;BME280;64752;48.870;9.082;2022-12-16T01:34:02;96995.19;;;-2.87;93.38
76054;BME280;64752;48.870;9.082;2022-12-16T01:36:27;96991.00;;;-2.81;93.32
76054;BME280;64752;48.870;9.082;2022-12-16T01:38:52;96997.75;;;-2.71;93.67
76054;BME280;64752;48.870;9.082;2022-12-16T01:41:18;97002.00;;;-2.68;93.19
76054;BME280;64752;48.870;9.082;2022-12-16T01:43:44;97007.06;;;-2.73;92.97
76054;BME280;64752;48.870;9.082;2022-12-16T01:46:17;97008.75;;;-2.70;92.91
76054;BME280;64752;48.870;9.082;2022-12-16T01:48:59;97002.00;;;-2.66;93.22
76054;BME280;64752;48.870;9.082;2022-12-16T01:53:56;97008.75;;;-2.67;93.01
76054;BME280;64752;48.870;9.082;2022-12-16T01:56:24;97010.41;;;-2.81;93.76
76054;BME280;64752;48.870;9.082;2022-12-16T01:58:51;97007.91;;;-2.74;93.33
76054;BME280;64752;48.870;9.082;2022-12-16T02:01:18;97020.56;;;-2.72;93.13
76054;BME280;64752;48.870;9.082;2022-12-16T02:03:44;97024.81;;;-2.73;93.65
76054;BME280;64752;48.870;9.082;2022-12-16T02:06:10;97029.88;;;-2.86;93.34
76054;BME280;64752;48.870;9.082;2022-12-16T02:08:35;97022.25;;;-2.80;93.71
76054;BME280;64752;48.870;9.082;2022-12-16T02:14:03;97025.66;;;-2.67;94.36
76054;BME280;64752;48.870;9.082;2022-12-16T02:16:38;97029.06;;;-2.58;93.49
76054;BME280;64752;48.870;9.082;2022-12-16T02:28:05;97039.22;;;-2.70;93.21
76054;BME280;64752;48.870;9.082;2022-12-16T02:33:23;97029.88;;;-2.71;93.15
76054;BME280;64752;48.870;9.082;2022-12-16T02:36:01;97029.03;;;-2.65;93.20
76054;BME280;64752;48.870;9.082;2022-12-16T02:38:35;97036.69;;;-2.52;92.61
76054;BME280;64752;48.870;9.082;2022-12-16T02:41:06;97033.28;;;-2.67;92.92
76054;BME280;64752;48.870;9.082;2022-12-16T02:46:25;97034.09;;;-2.76;93.45
76054;BME280;64752;48.870;9.082;2022-12-16T02:48:52;97031.59;;;-2.73;93.25
76054;BME280;64752;48.870;9.082;2022-12-16T02:51:18;97033.25;;;-2.77;93.16
76054;BME280;64752;48.870;9.082;2022-12-16T02:53:45;97034.13;;;-2.62;92.90
76054;BME280;64752;48.870;9.082;2022-12-16T02:59:12;97047.66;;;-2.54;91.96
76054;BME280;64752;48.870;9.082;2022-12-16T03:06:54;97047.66;;;-2.68;92.51
76054;BME280;64752;48.870;9.082;2022-12-16T03:09:25;97059.50;;;-2.59;91.57
76054;BME280;64752;48.870;9.082;2022-12-16T03:11:54;97059.50;;;-2.65;92.19
76054;BME280;64752;48.870;9.082;2022-12-16T03:14:22;97062.88;;;-2.68;92.86
76054;BME280;64752;48.870;9.082;2022-12-16T03:16:50;97058.66;;;-2.61;93.06
76054;BME280;64752;48.870;9.082;2022-12-16T03:19:16;97062.06;;;-2.55;92.98
76054;BME280;64752;48.870;9.082;2022-12-16T03:21:57;97055.25;;;-2.63;93.73
76054;BME280;64752;48.870;9.082;2022-12-16T03:24:25;97062.03;;;-2.59;93.33
76054;BME280;64752;48.870;9.082;2022-12-16T03:35:00;97076.41;;;-2.75;92.43
76054;BME280;64752;48.870;9.082;2022-12-16T03:37:32;97083.19;;;-2.59;92.26
76054;BME280;64752;48.870;9.082;2022-12-16T03:40:04;97074.72;;;-2.65;92.25
76054;BME280;64752;48.870;9.082;2022-12-16T03:42:32;97085.72;;;-2.63;92.65
76054;BME280;64752;48.870;9.082;2022-12-16T03:44:59;97081.50;;;-2.63;92.17
76054;BME280;64752;48.870;9.082;2022-12-16T03:47:28;97094.19;;;-2.66;92.59
76054;BME280;64752;48.870;9.082;2022-12-16T03:49:54;97087.41;;;-2.67;92.00
76054;BME280;64752;48.870;9.082;2022-12-16T03:52:20;97089.94;;;-2.79;92.62
76054;BME280;64752;48.870;9.082;2022-12-16T03:54:47;97084.84;;;-2.79;92.83
76054;BME280;64752;48.870;9.082;2022-12-16T03:57:12;97091.63;;;-2.69;92.48
76054;BME280;64752;48.870;9.082;2022-12-16T03:59:37;97095.88;;;-2.56;92.20
76054;BME280;64752;48.870;9.082;2022-12-16T04:02:03;97097.56;;;-2.59;91.94
76054;BME280;64752;48.870;9.082;2022-12-16T04:04:29;97090.78;;;-2.65;92.29
76054;BME280;64752;48.870;9.082;2022-12-16T04:06:54;97100.94;;;-2.69;92.45
76054;BME280;64752;48.870;9.082;2022-12-16T04:09:47;97103.47;;;-2.77;92.91
76054;BME280;64752;48.870;9.082;2022-12-16T04:12:13;97108.50;;;-2.80;92.50
76054;BME280;64752;48.870;9.082;2022-12-16T04:14:57;97110.22;;;-2.68;92.27
76054;BME280;64752;48.870;9.082;2022-12-16T04:17:41;97106.81;;;-2.83;92.42
76054;BME280;64752;48.870;9.082;2022-12-16T04:20:30;97111.09;;;-2.65;92.31
76054;BME280;64752;48.870;9.082;2022-12-16T04:23:15;97113.59;;;-2.73;92.69
76054;BME280;64752;48.870;9.082;2022-12-16T04:25:59;97113.63;;;-2.68;93.02
76054;BME280;64752;48.870;9.082;2022-12-16T04:28:25;97114.47;;;-2.66;92.04
76054;BME280;64752;48.870;9.082;2022-12-16T04:30:50;97117.00;;;-2.67;91.70
76054;BME280;64752;48.870;9.082;2022-12-16T04:33:16;97114.47;;;-2.66;92.23
76054;BME280;64752;48.870;9.082;2022-12-16T04:36:00;97122.91;;;-2.72;91.89
76054;BME280;64752;48.870;9.082;2022-12-16T04:38:44;97122.09;;;-2.64;92.04
76054;BME280;64752;48.870;9.082;2022-12-16T04:41:28;97130.56;;;-2.62;92.13
76054;BME280;64752;48.870;9.082;2022-12-16T04:44:12;97133.09;;;-2.61;91.59
76054;BME280;64752;48.870;9.082;2022-12-16T04:46:56;97124.63;;;-2.61;91.44
76054;BME280;64752;48.870;9.082;2022-12-16T04:49:40;97131.41;;;-2.60;92.57
76054;BME280;64752;48.870;9.082;2022-12-16T04:52:24;97140.72;;;-2.53;91.59
76054;BME280;64752;48.870;9.082;2022-12-16T04:55:09;97144.13;;;-2.45;91.12
76054;BME280;64752;48.870;9.082;2022-12-16T04:57:57;97148.34;;;-2.47;91.16
76054;BME280;64752;48.870;9.082;2022-12-16T05:00:42;97150.91;;;-2.52;91.33
76054;BME280;64752;48.870;9.082;2022-12-16T05:03:27;97151.72;;;-2.45;91.00
76054;BME280;64752;48.870;9.082;2022-12-16T05:06:12;97157.69;;;-2.40;90.31
76054;BME280;64752;48.870;9.082;2022-12-16T05:08:56;97166.13;;;-2.52;90.94
76054;BME280;64752;48.870;9.082;2022-12-16T05:11:40;97162.72;;;-2.55;91.13
76054;BME280;64752;48.870;9.082;2022-12-16T05:14:24;97158.50;;;-2.55;91.03
76054;BME280;64752;48.870;9.082;2022-12-16T05:17:08;97166.09;;;-2.48;90.70
76054;BME280;64752;48.870;9.082;2022-12-16T05:19:52;97175.44;;;-2.44;91.45
76054;BME280;64752;48.870;9.082;2022-12-16T05:22:36;97164.41;;;-2.54;90.99
76054;BME280;64752;48.870;9.082;2022-12-16T05:25:20;97169.50;;;-2.53;91.43
76054;BME280;64752;48.870;9.082;2022-12-16T05:28:04;97171.19;;;-2.48;90.60
76054;BME280;64752;48.870;9.082;2022-12-16T05:30:48;97179.63;;;-2.53;91.26
76054;BME280;64752;48.870;9.082;2022-12-16T05:33:32;97178.78;;;-2.56;91.00
76054;BME280;64752;48.870;9.082;2022-12-16T05:36:16;97187.25;;;-2.59;90.98
76054;BME280;64752;48.870;9.082;2022-12-16T05:39:00;97193.22;;;-2.46;90.81
76054;BME280;64752;48.870;9.082;2022-12-16T05:41:45;97195.72;;;-2.55;91.07
76054;BME280;64752;48.870;9.082;2022-12-16T05:44:28;97196.59;;;-2.42;90.91
76054;BME280;64752;48.870;9.082;2022-12-16T05:47:13;97206.72;;;-2.53;90.87
76054;BME280;64752;48.870;9.082;2022-12-16T05:49:57;97206.72;;;-2.53;91.33
76054;BME280;64752;48.870;9.082;2022-12-16T05:52:47;97205.00;;;-2.57;91.30
76054;BME280;64752;48.870;9.082;2022-12-16T05:55:31;97214.34;;;-2.52;91.34
76054;BME280;64752;48.870;9.082;2022-12-16T05:58:15;97220.31;;;-2.39;90.96
76054;BME280;64752;48.870;9.082;2022-12-16T06:00:59;97227.88;;;-2.48;90.83
76054;BME280;64752;48.870;9.082;2022-12-16T06:03:43;97227.88;;;-2.48;90.88
76054;BME280;64752;48.870;9.082;2022-12-16T06:06:27;97238.06;;;-2.39;90.77
76054;BME280;64752;48.870;9.082;2022-12-16T06:09:11;97237.16;;;-2.55;91.25
76054;BME280;64752;48.870;9.082;2022-12-16T06:11:57;97242.22;;;-2.58;91.62
76054;BME280;64752;48.870;9.082;2022-12-16T06:14:42;97249.00;;;-2.50;91.48
76054;BME280;64752;48.870;9.082;2022-12-16T06:17:26;97250.69;;;-2.53;91.41
76054;BME280;64752;48.870;9.082;2022-12-16T06:20:09;97254.97;;;-2.45;91.22
76054;BME280;64752;48.870;9.082;2022-12-16T06:22:54;97256.59;;;-2.57;91.43
76054;BME280;64752;48.870;9.082;2022-12-16T06:25:39;97263.34;;;-2.62;91.60
76054;BME280;64752;48.870;9.082;2022-12-16T06:28:23;97266.72;;;-2.64;92.02
76054;BME280;64752;48.870;9.082;2022-12-16T06:31:08;97273.50;;;-2.62;91.78
76054;BME280;64752;48.870;9.082;2022-12-16T06:33:52;97280.31;;;-2.50;90.99
76054;BME280;64752;48.870;9.082;2022-12-16T06:36:36;97273.53;;;-2.53;91.37
76054;BME280;64752;48.870;9.082;2022-12-16T06:39:20;97284.53;;;-2.57;90.90
76054;BME280;64752;48.870;9.082;2022-12-16T06:42:04;97290.41;;;-2.59;90.32
76054;BME280;64752;48.870;9.082;2022-12-16T06:44:48;97298.81;;;-2.73;90.46
76054;BME280;64752;48.870;9.082;2022-12-16T06:47:32;97295.44;;;-2.67;90.09
76054;BME280;64752;48.870;9.082;2022-12-16T06:50:16;97304.72;;;-2.77;90.49
76054;BME280;64752;48.870;9.082;2022-12-16T06:53:00;97315.72;;;-2.73;90.41
76054;BME280;64752;48.870;9.082;2022-12-16T06:55:44;97315.72;;;-2.75;89.82
76054;BME280;64752;48.870;9.082;2022-12-16T06:58:28;97324.97;;;-2.81;90.45
76054;BME280;64752;48.870;9.082;2022-12-16T07:01:12;97329.06;;;-2.99;90.66
76054;BME280;64752;48.870;9.082;2022-12-16T07:03:56;97330.00;;;-2.87;89.58
76054;BME280;64752;48.870;9.082;2022-12-16T07:06:40;97334.19;;;-2.91;90.10
76054;BME280;64752;48.870;9.082;2022-12-16T07:09:38;97341.06;;;-2.79;89.95
76054;BME280;64752;48.870;9.082;2022-12-16T07:12:21;97349.50;;;-2.79;90.14
76054;BME280;64752;48.870;9.082;2022-12-16T07:15:06;97352.06;;;-2.79;89.75
76054;BME280;64752;48.870;9.082;2022-12-16T07:17:51;97358.84;;;-2.73;89.04
76054;BME280;64752;48.870;9.082;2022-12-16T07:20:35;97355.41;;;-2.84;89.46
76054;BME280;64752;48.870;9.082;2022-12-16T07:23:19;97363.91;;;-2.79;89.19
76054;BME280;64752;48.870;9.082;2022-12-16T07:26:03;97368.94;;;-2.82;88.70
76054;BME280;64752;48.870;9.082;2022-12-16T07:28:47;97369.75;;;-2.85;89.00
76054;BME280;64752;48.870;9.082;2022-12-16T07:31:31;97379.97;;;-2.79;89.31
76054;BME280;64752;48.870;9.082;2022-12-16T07:34:15;97369.88;;;-2.65;88.44
76054;BME280;64752;48.870;9.082;2022-12-16T07:36:58;97378.38;;;-2.61;88.77
76054;BME280;64752;48.870;9.082;2022-12-16T07:39:42;97380.06;;;-2.63;88.21
76054;BME280;64752;48.870;9.082;2022-12-16T07:42:26;97383.41;;;-2.69;88.02
76054;BME280;64752;48.870;9.082;2022-12-16T07:45:10;97387.63;;;-2.69;88.07
76054;BME280;64752;48.870;9.082;2022-12-16T07:47:54;97392.69;;;-2.73;86.95
76054;BME280;64752;48.870;9.082;2022-12-16T07:50:38;97392.69;;;-2.71;87.66
76054;BME280;64752;48.870;9.082;2022-12-16T07:53:23;97396.25;;;-2.47;86.53
76054;BME280;64752;48.870;9.082;2022-12-16T07:56:07;97405.53;;;-2.49;86.00
76054;BME280;64752;48.870;9.082;2022-12-16T07:58:51;97404.66;;;-2.50;86.07
76054;BME280;64752;48.870;9.082;2022-12-16T08:01:35;97401.34;;;-2.41;84.86
76054;BME280;64752;48.870;9.082;2022-12-16T08:04:19;97417.28;;;-2.62;86.65
76054;BME280;64752;48.870;9.082;2022-12-16T08:07:03;97414.88;;;-2.44;85.10
76054;BME280;64752;48.870;9.082;2022-12-16T08:09:47;97420.84;;;-2.37;85.23
76054;BME280;64752;48.870;9.082;2022-12-16T08:12:31;97435.03;;;-2.64;86.08
76054;BME280;64752;48.870;9.082;2022-12-16T08:15:15;97439.38;;;-2.49;85.78
76054;BME280;64752;48.870;9.082;2022-12-16T08:17:59;97438.41;;;-2.65;86.06
76054;BME280;64752;48.870;9.082;2022-12-16T08:20:43;97448.59;;;-2.62;85.96
76054;BME280;64752;48.870;9.082;2022-12-16T08:23:27;97453.78;;;-2.48;86.05
76054;BME280;64752;48.870;9.082;2022-12-16T08:26:11;97460.56;;;-2.45;85.52
76054;BME280;64752;48.870;9.082;2022-12-16T08:28:55;97461.41;;;-2.43;84.65
76054;BME280;64752;48.870;9.082;2022-12-16T08:31:39;97469.81;;;-2.50;84.35
76054;BME280;64752;48.870;9.082;2022-12-16T08:34:23;97468.25;;;-2.35;83.88
76054;BME280;64752;48.870;9.082;2022-12-16T08:37:07;97468.22;;;-2.38;84.49
76054;BME280;64752;48.870;9.082;2022-12-16T08:39:51;97474.22;;;-2.26;83.04
76054;BME280;64752;48.870;9.082;2022-12-16T08:42:35;97476.81;;;-2.22;82.76
76054;BME280;64752;48.870;9.082;2022-12-16T08:45:19;97477.78;;;-2.01;82.72
76054;BME280;64752;48.870;9.082;2022-12-16T08:48:04;97485.53;;;-1.81;82.18
76054;BME280;64752;48.870;9.082;2022-12-16T08:50:48;97493.00;;;-2.04;82.35
76054;BME280;64752;48.870;9.082;2022-12-16T08:53:32;97500.59;;;-2.10;81.49
76054;BME280;64752;48.870;9.082;2022-12-16T08:56:15;97500.75;;;-1.84;81.19
76054;BME280;64752;48.870;9.082;2022-12-16T08:59:04;97500.88;;;-1.58;80.20
76054;BME280;64752;48.870;9.082;2022-12-16T09:01:48;97495.84;;;-1.49;79.44
76054;BME280;64752;48.870;9.082;2022-12-16T09:04:32;97509.47;;;-1.38;79.70
76054;BME280;64752;48.870;9.082;2022-12-16T09:07:16;97510.31;;;-1.36;80.71
76054;BME280;64752;48.870;9.082;2022-12-16T09:10:01;97516.25;;;-1.33;79.14
76054;BME280;64752;48.870;9.082;2022-12-16T09:12:45;97518.84;;;-1.21;78.44
76054;BME280;64752;48.870;9.082;2022-12-16T09:15:29;97519.63;;;-1.39;78.33
76054;BME280;64752;48.870;9.082;2022-12-16T09:18:13;97528.09;;;-1.39;77.70
76054;BME280;64752;48.870;9.082;2022-12-16T09:20:57;97524.81;;;-1.05;77.27
76054;BME280;64752;48.870;9.082;2022-12-16T09:23:41;97526.47;;;-1.21;77.91
76054;BME280;64752;48.870;9.082;2022-12-16T09:26:25;97527.34;;;-1.19;78.18
76054;BME280;64752;48.870;9.082;2022-12-16T09:29:09;97529.88;;;-1.21;77.27
76054;BME280;64752;48.870;9.082;2022-12-16T09:31:53;97536.69;;;-1.07;77.83
76054;BME280;64752;48.870;9.082;2022-12-16T09:34:37;97545.13;;;-1.14;77.58
76054;BME280;64752;48.870;9.082;2022-12-16T09:37:21;97548.59;;;-1.05;77.31
76054;BME280;64752;48.870;9.082;2022-12-16T09:40:05;97547.75;;;-0.88;76.43
76054;BME280;64752;48.870;9.082;2022-12-16T09:42:58;97551.19;;;-0.88;75.83
76054;BME280;64752;48.870;9.082;2022-12-16T09:48:44;97552.81;;;-0.98;75.03
76054;BME280;64752;48.870;9.082;2022-12-16T09:51:31;97554.63;;;-0.64;74.27
76054;BME280;64752;48.870;9.082;2022-12-16T09:54:18;97552.94;;;-0.54;75.12
76054;BME280;64752;48.870;9.082;2022-12-16T09:57:15;97562.31;;;-0.46;73.61
76054;BME280;64752;48.870;9.082;2022-12-16T10:00:02;97556.31;;;-0.55;74.06
76054;BME280;64752;48.870;9.082;2022-12-16T10:02:48;97562.31;;;-0.35;72.43
76054;BME280;64752;48.870;9.082;2022-12-16T10:05:53;97557.22;;;-0.13;72.04
76054;BME280;64752;48.870;9.082;2022-12-16T10:09:05;97558.03;;;-0.62;73.94
76054;BME280;64752;48.870;9.082;2022-12-16T10:12:13;97558.06;;;-0.22;73.47
76054;BME280;64752;48.870;9.082;2022-12-16T10:18:21;97554.66;;;0.08;71.85
76054;BME280;64752;48.870;9.082;2022-12-16T10:21:14;97555.50;;;-0.01;72.66
76054;BME280;64752;48.870;9.082;2022-12-16T10:24:16;97558.94;;;0.00;72.35
76054;BME280;64752;48.870;9.082;2022-12-16T10:27:22;97564.00;;;0.28;71.86
76054;BME280;64752;48.870;9.082;2022-12-16T10:30:13;97564.88;;;-0.07;71.38
76054;BME280;64752;48.870;9.082;2022-12-16T10:32:58;97571.66;;;-0.31;72.13
76054;BME280;64752;48.870;9.082;2022-12-16T10:35:46;97570.75;;;0.36;69.07
76054;BME280;64752;48.870;9.082;2022-12-16T10:38:50;97574.16;;;0.54;68.88
76054;BME280;64752;48.870;9.082;2022-12-16T10:41:41;97570.81;;;-0.02;72.67
76054;BME280;64752;48.870;9.082;2022-12-16T10:44:51;97578.38;;;0.61;69.56
76054;BME280;64752;48.870;9.082;2022-12-16T10:47:36;97575.00;;;0.50;71.06
76054;BME280;64752;48.870;9.082;2022-12-16T10:50:20;97576.50;;;1.09;68.21
76054;BME280;64752;48.870;9.082;2022-12-16T10:53:13;97579.06;;;1.14;67.08
76054;BME280;64752;48.870;9.082;2022-12-16T10:59:04;97578.75;;;1.68;62.77
76054;BME280;64752;48.870;9.082;2022-12-16T11:04:59;97587.78;;;2.14;63.19
76054;BME280;64752;48.870;9.082;2022-12-16T11:10:35;97583.97;;;1.49;62.69
76054;BME280;64752;48.870;9.082;2022-12-16T11:18:59;97591.41;;;1.85;62.89
76054;BME280;64752;48.870;9.082;2022-12-16T11:21:44;97596.69;;;1.59;64.21
76054;BME280;64752;48.870;9.082;2022-12-16T11:24:28;97587.38;;;1.50;63.12
76054;BME280;64752;48.870;9.082;2022-12-16T11:27:21;97595.22;;;1.08;63.57
76054;BME280;64752;48.870;9.082;2022-12-16T11:32:58;97594.25;;;1.37;62.94
76054;BME280;64752;48.870;9.082;2022-12-16T11:35:49;97603.53;;;1.58;63.09
76054;BME280;64752;48.870;9.082;2022-12-16T11:41:34;97603.03;;;0.62;67.23
76054;BME280;64752;48.870;9.082;2022-12-16T11:47:37;97615.00;;;-0.02;69.07
76054;BME280;64752;48.870;9.082;2022-12-16T11:50:25;97608.06;;;0.94;65.85
76054;BME280;64752;48.870;9.082;2022-12-16T11:56:16;97617.41;;;1.00;64.74
76054;BME280;64752;48.870;9.082;2022-12-16T11:59:10;97623.94;;;1.60;63.22
76054;BME280;64752;48.870;9.082;2022-12-16T12:02:02;97630.09;;;1.17;65.24
76054;BME280;64752;48.870;9.082;2022-12-16T12:04:49;97621.38;;;1.61;62.66
76054;BME280;64752;48.870;9.082;2022-12-16T12:14:11;97640.38;;;0.97;64.49
76054;BME280;64752;48.870;9.082;2022-12-16T12:26:24;97652.25;;;1.09;64.06
76054;BME280;64752;48.870;9.082;2022-12-16T12:41:30;97658.31;;;0.75;64.27
76054;BME280;64752;48.870;9.082;2022-12-16T12:47:25;97669.34;;;0.77;65.23
76054;BME280;64752;48.870;9.082;2022-12-16T12:50:22;97674.50;;;0.41;67.22
76054;BME280;64752;48.870;9.082;2022-12-16T12:58:58;97672.75;;;0.55;65.01
76054;BME280;64752;48.870;9.082;2022-12-16T13:01:48;97671.06;;;0.23;66.68
76054;BME280;64752;48.870;9.082;2022-12-16T13:04:34;97673.63;;;0.15;66.40
76054;BME280;64752;48.870;9.082;2022-12-16T13:07:18;97678.75;;;0.46;65.72
76054;BME280;64752;48.870;9.082;2022-12-16T13:16:03;97691.47;;;0.71;66.39
76054;BME280;64752;48.870;9.082;2022-12-16T13:21:51;97688.94;;;0.55;66.43
76054;BME280;64752;48.870;9.082;2022-12-16T13:24:53;97694.03;;;0.52;64.92
76054;BME280;64752;48.870;9.082;2022-12-16T13:27:48;97700.81;;;0.29;66.65
76054;BME280;64752;48.870;9.082;2022-12-16T13:30:34;97703.31;;;-0.08;66.78
76054;BME280;64752;48.870;9.082;2022-12-16T13:33:27;97712.72;;;0.11;67.03
76054;BME280;64752;48.870;9.082;2022-12-16T13:36:14;97715.25;;;0.14;67.43
76054;BME280;64752;48.870;9.082;2022-12-16T13:39:06;97715.19;;;-0.13;67.84
76054;BME280;64752;48.870;9.082;2022-12-16T13:41:59;97719.38;;;-0.38;68.93
76054;BME280;64752;48.870;9.082;2022-12-16T13:47:34;97731.28;;;-0.22;67.86
76054;BME280;64752;48.870;9.082;2022-12-16T13:50:41;97730.38;;;-0.46;70.35
76054;BME280;64752;48.870;9.082;2022-12-16T13:53:37;97734.66;;;-0.37;69.96
76054;BME280;64752;48.870;9.082;2022-12-16T13:56:28;97746.34;;;-0.81;70.71
76054;BME280;64752;48.870;9.082;2022-12-16T13:59:23;97744.81;;;-0.49;69.74
76054;BME280;64752;48.870;9.082;2022-12-16T14:05:27;97755.03;;;-0.38;70.24
76054;BME280;64752;48.870;9.082;2022-12-16T14:08:18;97760.00;;;-0.68;71.08
76054;BME280;64752;48.870;9.082;2022-12-16T14:11:10;97775.41;;;-0.37;69.18
76054;BME280;64752;48.870;9.082;2022-12-16T14:13:58;97769.34;;;-0.59;70.84
76054;BME280;64752;48.870;9.082;2022-12-16T14:25:24;97794.47;;;-1.13;73.27
76054;BME280;64752;48.870;9.082;2022-12-16T14:28:33;97795.25;;;-1.19;74.67
76054;BME280;64752;48.870;9.082;2022-12-16T14:31:39;97807.19;;;-1.11;72.84
76054;BME280;64752;48.870;9.082;2022-12-16T14:34:32;97812.28;;;-1.11;73.19
76054;BME280;64752;48.870;9.082;2022-12-16T14:40:17;97824.78;;;-1.38;74.65
76054;BME280;64752;48.870;9.082;2022-12-16T14:43:02;97826.91;;;-1.79;75.47
76054;BME280;64752;48.870;9.082;2022-12-16T14:45:49;97816.22;;;-1.44;73.72
76054;BME280;64752;48.870;9.082;2022-12-16T14:48:36;97826.38;;;-1.47;74.61
76054;BME280;64752;48.870;9.082;2022-12-16T14:51:27;97829.00;;;-1.41;74.41
76054;BME280;64752;48.870;9.082;2022-12-16T14:54:16;97827.22;;;-1.48;74.04
76054;BME280;64752;48.870;9.082;2022-12-16T14:57:01;97830.44;;;-1.66;75.49
76054;BME280;64752;48.870;9.082;2022-12-16T14:59:45;97846.56;;;-1.63;75.13
76054;BME280;64752;48.870;9.082;2022-12-16T15:02:35;97840.53;;;-1.72;74.97
76054;BME280;64752;48.870;9.082;2022-12-16T15:05:27;97846.22;;;-1.94;76.49
76054;BME280;64752;48.870;9.082;2022-12-16T15:08:17;97848.63;;;-2.04;76.55
76054;BME280;64752;48.870;9.082;2022-12-16T15:11:03;97848.53;;;-2.12;76.69
76054;BME280;64752;48.870;9.082;2022-12-16T15:13:53;97858.66;;;-2.14;77.31
76054;BME280;64752;48.870;9.082;2022-12-16T15:16:38;97859.41;;;-2.24;77.70
76054;BME280;64752;48.870;9.082;2022-12-16T15:19:23;97859.25;;;-2.35;77.78
76054;BME280;64752;48.870;9.082;2022-12-16T15:22:13;97861.66;;;-2.44;78.41
76054;BME280;64752;48.870;9.082;2022-12-16T15:24:58;97869.22;;;-2.47;78.41
76054;BME280;64752;48.870;9.082;2022-12-16T15:27:42;97870.94;;;-2.46;78.75
76054;BME280;64752;48.870;9.082;2022-12-16T15:30:38;97877.00;;;-2.36;77.69
76054;BME280;64752;48.870;9.082;2022-12-16T15:33:25;97881.75;;;-2.58;79.45
76054;BME280;64752;48.870;9.082;2022-12-16T15:36:26;97886.84;;;-2.56;79.22
76054;BME280;64752;48.870;9.082;2022-12-16T15:39:23;97885.28;;;-2.49;79.50
76054;BME280;64752;48.870;9.082;2022-12-16T15:42:27;97896.91;;;-2.64;80.69
76054;BME280;64752;48.870;9.082;2022-12-16T15:45:30;97897.13;;;-2.48;79.98
76054;BME280;64752;48.870;9.082;2022-12-16T15:48:26;97902.00;;;-2.62;79.86
76054;BME280;64752;48.870;9.082;2022-12-16T15:51:42;97916.34;;;-2.66;80.52
76054;BME280;64752;48.870;9.082;2022-12-16T15:54:28;97916.28;;;-2.69;81.38
76054;BME280;64752;48.870;9.082;2022-12-16T15:57:31;97918.72;;;-2.75;82.19
76054;BME280;64752;48.870;9.082;2022-12-16T16:00:29;97925.66;;;-2.63;81.81
76054;BME280;64752;48.870;9.082;2022-12-16T16:06:17;97943.31;;;-2.71;83.57
76054;BME280;64752;48.870;9.082;2022-12-16T16:09:21;97942.41;;;-2.75;83.26
76054;BME280;64752;48.870;9.082;2022-12-16T16:12:10;97949.31;;;-2.66;82.64
76054;BME280;64752;48.870;9.082;2022-12-16T16:14:54;97952.69;;;-2.65;83.33
76054;BME280;64752;48.870;9.082;2022-12-16T16:17:38;97950.28;;;-2.58;82.92
76054;BME280;64752;48.870;9.082;2022-12-16T16:20:22;97961.16;;;-2.65;83.01
76054;BME280;64752;48.870;9.082;2022-12-16T16:23:08;97956.72;;;-2.78;83.50
76054;BME280;64752;48.870;9.082;2022-12-16T16:25:52;97970.38;;;-2.72;83.47
76054;BME280;64752;48.870;9.082;2022-12-16T16:28:36;97964.50;;;-2.67;83.22
76054;BME280;64752;48.870;9.082;2022-12-16T16:31:20;97971.03;;;-2.82;84.14
76054;BME280;64752;48.870;9.082;2022-12-16T16:34:03;97982.88;;;-2.82;84.21
76054;BME280;64752;48.870;9.082;2022-12-16T16:36:51;97973.72;;;-2.73;84.19